^^
Saratoga-Weather Station Historical Data
Daily Summary for April 10, 2020 Units:  English    Metric   Both
Daily Weekly Monthly Yearly Custom
  High: Low: Average:
Temperature: 55.4 °F 45.5 °F 50.4 °F
Dew Point: 49.1 °F 39.4 °F 44.6 °F
Humidity: 94% 56% 82%
Wind Speed: 10.1mph 0mph 3.2mph
Wind Gust: 14mph - -
Wind- - West
Pressure: 30.2 in 30.1 in -
Precipitation: 0 in    
Historical Graphs
 
 
Tabular Data for April 10, 2020
Time Temperature Dew Point Pressure Wind Wind Speed Wind Gust Humidity Rainfall Rate (Hourly) solar
00:01 50.5 °F 48.9 °F 30.1 in West 2 mph 4 mph 94% 0 in 0 W/m2
00:06 50.5 °F 48.9 °F 30.1 in SW 2 mph 3 mph 94% 0 in 0 W/m2
00:11 50.5 °F 48.9 °F 30.1 in West 2.9 mph 4 mph 94% 0 in 0 W/m2
00:16 50.7 °F 49.1 °F 30.1 in WNW 2 mph 3 mph 94% 0 in 0 W/m2
00:21 50.5 °F 48.9 °F 30.1 in WSW 2.9 mph 6 mph 94% 0 in 0 W/m2
00:26 50.7 °F 49.1 °F 30.1 in WSW 2 mph 3 mph 94% 0 in 0 W/m2
00:31 50.7 °F 49.1 °F 30.1 in West 2.9 mph 8 mph 94% 0 in 0 W/m2
00:36 50.7 °F 49.1 °F 30.1 in WNW 4 mph 4 mph 94% 0 in 0 W/m2
00:41 50.9 °F 48.9 °F 30.1 in WNW 4 mph 8 mph 93% 0 in 0 W/m2
00:46 51.1 °F 49.1 °F 30.1 in West 2 mph 4 mph 93% 0 in 0 W/m2
00:51 50.9 °F 48.9 °F 30.1 in West 5 mph 5 mph 93% 0 in 0 W/m2
00:56 50.7 °F 48.7 °F 30.1 in WNW 0.9 mph 4 mph 93% 0 in 0 W/m2
01:01 50.5 °F 48.6 °F 30.1 in Calm   4 mph 93% 0 in 0 W/m2
01:06 50.5 °F 48.6 °F 30.1 in West 2 mph 4 mph 93% 0 in 0 W/m2
01:11 50.5 °F 48.6 °F 30.1 in WSW 2.9 mph 4 mph 93% 0 in 0 W/m2
01:16 50.5 °F 48.6 °F 30.1 in WNW 0.9 mph 2 mph 93% 0 in 0 W/m2
01:21 50.4 °F 48.4 °F 30.1 in Calm   2 mph 93% 0 in 0 W/m2
01:26 50.2 °F 48.2 °F 30.1 in Calm   4 mph 93% 0 in 0 W/m2
01:31 50.2 °F 48.2 °F 30.1 in West 0.9 mph 3 mph 93% 0 in 0 W/m2
01:36 50.2 °F 48.2 °F 30.1 in WNW 2 mph 3 mph 93% 0 in 0 W/m2
01:41 50 °F 48 °F 30.1 in Calm     93% 0 in 0 W/m2
01:46 49.8 °F 47.8 °F 30.1 in WSW 0.9 mph 4 mph 93% 0 in 0 W/m2
01:51 49.8 °F 48.2 °F 30.1 in NW 2 mph 5 mph 94% 0 in 0 W/m2
01:56 49.8 °F 48.2 °F 30.1 in West 6.9 mph 7 mph 94% 0 in 0 W/m2
02:01 50 °F 48.4 °F 30.1 in WNW 2 mph 5 mph 94% 0 in 0 W/m2
02:06 50.2 °F 48.6 °F 30.1 in West 2.9 mph 7 mph 94% 0 in 0 W/m2
02:11 50.2 °F 48.6 °F 30.1 in WNW 4 mph 5 mph 94% 0 in 0 W/m2
02:16 50.2 °F 48.2 °F 30.1 in WNW 0.9 mph 4 mph 93% 0 in 0 W/m2
02:21 50.2 °F 48.2 °F 30.1 in WNW 0.9 mph 3 mph 93% 0 in 0 W/m2
02:26 50.2 °F 48.2 °F 30.1 in West 0.9 mph 2 mph 93% 0 in 0 W/m2
02:31 50.2 °F 48.2 °F 30.1 in Calm   4 mph 93% 0 in 0 W/m2
02:36 50 °F 48 °F 30.1 in WNW 0.9 mph 4 mph 93% 0 in 0 W/m2
02:41 50.2 °F 48.2 °F 30.1 in West 2.9 mph 4 mph 93% 0 in 0 W/m2
02:46 50.2 °F 48.2 °F 30.1 in West 2 mph 4 mph 93% 0 in 0 W/m2
02:52 50.2 °F 48.2 °F 30.1 in West 0.9 mph 3 mph 93% 0 in 0 W/m2
02:57 50.2 °F 48.2 °F 30.1 in West 2 mph 4 mph 93% 0 in 0 W/m2
03:02 50.2 °F 48.2 °F 30.1 in West 0.9 mph 6 mph 93% 0 in 0 W/m2
03:07 50.2 °F 48 °F 30.1 in Calm   3 mph 92% 0 in 0 W/m2
03:12 50.2 °F 48 °F 30.1 in West 2.9 mph 6 mph 92% 0 in 0 W/m2
03:17 50.2 °F 48 °F 30.1 in WNW 2.9 mph 3 mph 92% 0 in 0 W/m2
03:22 50.2 °F 48 °F 30.1 in West 0.9 mph 6 mph 92% 0 in 0 W/m2
03:27 50.2 °F 48 °F 30.1 in WNW 2 mph 4 mph 92% 0 in 0 W/m2
03:32 50.2 °F 48 °F 30.1 in WSW 0.9 mph 4 mph 92% 0 in 0 W/m2
03:37 50.2 °F 48 °F 30.1 in West 2.9 mph 4 mph 92% 0 in 0 W/m2
03:42 50 °F 48 °F 30.1 in West 6 mph 6 mph 93% 0 in 0 W/m2
03:47 50 °F 47.8 °F 30.1 in WSW 6.9 mph 7 mph 92% 0 in 0 W/m2
03:52 50.2 °F 48 °F 30.1 in WSW 2.9 mph 6 mph 92% 0 in 0 W/m2
03:57 50.4 °F 48.2 °F 30.1 in SW 8.1 mph 8 mph 92% 0 in 0 W/m2
04:02 50.4 °F 48.2 °F 30.1 in WNW 2 mph 6 mph 92% 0 in 0 W/m2
04:07 50.5 °F 48 °F 30.1 in West 6 mph 9 mph 91% 0 in 0 W/m2
04:12 50.5 °F 48 °F 30.1 in NW 0.9 mph 8 mph 91% 0 in 0 W/m2
04:17 50.5 °F 48 °F 30.1 in West 0.9 mph 9 mph 91% 0 in 0 W/m2
04:22 50.5 °F 48 °F 30.1 in WSW 2 mph 3 mph 91% 0 in 0 W/m2
04:27 50.4 °F 47.8 °F 30.1 in WSW 0.9 mph 5 mph 91% 0 in 0 W/m2
04:32 50.4 °F 48.2 °F 30.1 in West 0.9 mph 6 mph 92% 0 in 0 W/m2
04:37 50.4 °F 48.2 °F 30.1 in WSW 2 mph 5 mph 92% 0 in 0 W/m2
04:42 50.2 °F 48 °F 30.1 in WSW 2 mph 8 mph 92% 0 in 0 W/m2
04:47 50.2 °F 48 °F 30.1 in WNW 4 mph 6 mph 92% 0 in 0 W/m2
04:52 50.2 °F 48 °F 30.1 in WSW 4 mph 7 mph 92% 0 in 0 W/m2
04:57 50.2 °F 48 °F 30.1 in WNW 4.9 mph 7 mph 92% 0 in 0 W/m2
05:02 50.2 °F 48 °F 30.1 in WNW 0.9 mph 7 mph 92% 0 in 0 W/m2
05:07 50.2 °F 48 °F 30.1 in West 2 mph 7 mph 92% 0 in 0 W/m2
05:12 50.2 °F 48 °F 30.1 in West 4 mph 9 mph 92% 0 in 0 W/m2
05:17 50.2 °F 48 °F 30.1 in West 6 mph 8 mph 92% 0 in 0 W/m2
05:22 50.2 °F 48 °F 30.1 in WSW 2 mph 8 mph 92% 0 in 0 W/m2
05:27 50.2 °F 48 °F 30.1 in West 6 mph 6 mph 92% 0 in 0 W/m2
05:32 50.2 °F 48.2 °F 30.1 in West 2.9 mph 8 mph 93% 0 in 0 W/m2
05:37 50.2 °F 48.2 °F 30.1 in West 2.9 mph 6 mph 93% 0 in 0 W/m2
05:42 50 °F 48 °F 30.1 in WSW 4 mph 9 mph 93% 0 in 0 W/m2
05:47 50 °F 48 °F 30.1 in West 4 mph 5 mph 93% 0 in 0 W/m2
05:52 49.8 °F 47.8 °F 30.1 in West 4 mph 6 mph 93% 0 in 0 W/m2
05:57 49.8 °F 47.8 °F 30.1 in WNW 4.9 mph 6 mph 93% 0 in 0 W/m2
06:02 49.8 °F 47.8 °F 30.1 in WSW 4 mph 7 mph 93% 0 in 0 W/m2
06:07 49.6 °F 47.7 °F 30.1 in West 6 mph 7 mph 93% 0 in 0 W/m2
06:12 49.6 °F 47.7 °F 30.1 in West 4 mph 6 mph 93% 0 in 0 W/m2
06:17 49.6 °F 48 °F 30.1 in West 6 mph 10 mph 94% 0 in 0 W/m2
06:22 49.6 °F 48 °F 30.1 in WNW 2.9 mph 4 mph 94% 0 in 0 W/m2
06:27 49.6 °F 48 °F 30.1 in West 6 mph 10 mph 94% 0 in 0 W/m2
06:32 49.6 °F 48 °F 30.1 in WNW 0.9 mph 7 mph 94% 0 in 0 W/m2
06:37 49.6 °F 48 °F 30.1 in WNW 4.9 mph 10 mph 94% 0 in 0 W/m2
06:42 49.5 °F 47.8 °F 30.1 in West 2.9 mph 5 mph 94% 0 in 0 W/m2
06:47 49.5 °F 47.5 °F 30.1 in WNW 0.9 mph 3 mph 93% 0 in 0 W/m2
06:52 49.5 °F 47.5 °F 30.1 in WNW 2.9 mph 7 mph 93% 0 in 0 W/m2
06:57 49.5 °F 47.5 °F 30.1 in WNW 2 mph 4 mph 93% 0 in 0 W/m2
07:02 49.3 °F 47.3 °F 30.1 in WNW 0.9 mph 8 mph 93% 0 in 0 W/m2
07:07 49.3 °F 47.3 °F 30.1 in West 2.9 mph 6 mph 93% 0 in 0 W/m2
07:12 49.3 °F 47.7 °F 30.1 in West 4 mph 8 mph 94% 0 in 0 W/m2
07:17 49.3 °F 47.7 °F 30.1 in West 6 mph 6 mph 94% 0 in 0 W/m2
07:22 49.3 °F 47.7 °F 30.1 in West 6.9 mph 8 mph 94% 0 in 0 W/m2
07:27 49.3 °F 47.7 °F 30.1 in SW 4.9 mph 9 mph 94% 0 in 0 W/m2
07:32 49.3 °F 47.7 °F 30.1 in West 2.9 mph 8 mph 94% 0 in 0 W/m2
07:37 49.3 °F 47.7 °F 30.1 in WNW 6 mph 9 mph 94% 0 in 0 W/m2
07:42 49.1 °F 47.1 °F 30.1 in WNW 2.9 mph 7 mph 93% 0 in 0 W/m2
07:47 49.1 °F 47.1 °F 30.1 in West 2.9 mph 6 mph 93% 0 in 0 W/m2
07:52 48.9 °F 46.9 °F 30.1 in West 4 mph 7 mph 93% 0 in 0 W/m2
07:57 48.9 °F 46.9 °F 30.1 in SW 2.9 mph 7 mph 93% 0 in 0 W/m2
08:02 48.9 °F 46.9 °F 30.1 in WSW 6 mph 7 mph 93% 0 in 5 W/m2
08:07 48.9 °F 46.9 °F 30.1 in NW 4 mph 6 mph 93% 0 in 9 W/m2
08:12 48.9 °F 46.9 °F 30.1 in WNW 6.9 mph 8 mph 93% 0 in 12 W/m2
08:17 48.9 °F 46.9 °F 30.1 in WNW 2.9 mph 8 mph 93% 0 in 16 W/m2
08:22 48.9 °F 46.9 °F 30.1 in WNW 2.9 mph 6 mph 93% 0 in 23 W/m2
08:27 48.9 °F 46.9 °F 30.2 in West 2.9 mph 6 mph 93% 0 in 25 W/m2
08:32 48.9 °F 46.9 °F 30.2 in NW 4.9 mph 7 mph 93% 0 in 26 W/m2
08:37 48.9 °F 46.9 °F 30.2 in WSW 6.9 mph 8 mph 93% 0 in 28 W/m2
08:42 48.9 °F 46.9 °F 30.2 in West 2.9 mph 7 mph 93% 0 in 32 W/m2
08:47 48.9 °F 46.9 °F 30.2 in West 2 mph 5 mph 93% 0 in 37 W/m2
08:52 48.9 °F 46.9 °F 30.2 in West 2.9 mph 7 mph 93% 0 in 42 W/m2
08:58 48.9 °F 46.9 °F 30.2 in West 2.9 mph 7 mph 93% 0 in 40 W/m2
09:03 48.7 °F 46.8 °F 30.2 in WSW 4.9 mph 8 mph 93% 0 in 37 W/m2
09:08 48.7 °F 46.8 °F 30.2 in West 2.9 mph 8 mph 93% 0 in 33 W/m2
09:13 48.7 °F 46.8 °F 30.2 in West 2.9 mph 8 mph 93% 0 in 30 W/m2
09:18 48.6 °F 46.6 °F 30.2 in West 2 mph 7 mph 93% 0 in 30 W/m2
09:23 48.6 °F 46.6 °F 30.2 in West 2 mph 4 mph 93% 0 in 32 W/m2
09:28 48.4 °F 46.4 °F 30.2 in WNW 2.9 mph 6 mph 93% 0 in 53 W/m2
09:33 48.4 °F 46.4 °F 30.2 in West 2 mph 6 mph 93% 0 in 93 W/m2
09:38 48.6 °F 46.6 °F 30.2 in West 2 mph 7 mph 93% 0 in 35 W/m2
09:43 48.6 °F 46.6 °F 30.2 in West 4 mph 10 mph 93% 0 in 65 W/m2
09:48 48.6 °F 46.6 °F 30.2 in WNW 4.9 mph 9 mph 93% 0 in 128 W/m2
09:53 48.7 °F 46.8 °F 30.2 in WNW 4 mph 10 mph 93% 0 in 195 W/m2
09:58 48.9 °F 46.8 °F 30.2 in West 6.9 mph 9 mph 92% 0 in 221 W/m2
10:03 49.5 °F 47.3 °F 30.2 in WSW 6.9 mph 8 mph 92% 0 in 229 W/m2
10:08 49.6 °F 47.1 °F 30.2 in West 2 mph 11 mph 91% 0 in 42 W/m2
10:13 49.8 °F 47.3 °F 30.2 in West 4 mph 9 mph 91% 0 in 311 W/m2
10:18 49.8 °F 46.9 °F 30.2 in WSW 6.9 mph 11 mph 90% 0 in 332 W/m2
10:23 50.4 °F 47.5 °F 30.2 in NW 2.9 mph 6 mph 90% 0 in 352 W/m2
10:28 50.4 °F 46.9 °F 30.2 in WNW 2.9 mph 8 mph 88% 0 in 336 W/m2
10:33 50.4 °F 46.6 °F 30.2 in West 2.9 mph 8 mph 87% 0 in 95 W/m2
10:38 50.5 °F 46.8 °F 30.2 in West 6 mph 9 mph 87% 0 in 380 W/m2
10:43 50.7 °F 46.9 °F 30.2 in NW 2 mph 7 mph 87% 0 in 403 W/m2
10:48 50.9 °F 46.9 °F 30.2 in WSW 2.9 mph 9 mph 86% 0 in 392 W/m2
10:53 50.7 °F 46.8 °F 30.2 in NW 4 mph 9 mph 86% 0 in 413 W/m2
10:58 50.7 °F 46.4 °F 30.2 in West 2.9 mph 9 mph 85% 0 in 410 W/m2
11:03 50.9 °F 46.2 °F 30.2 in WNW 4 mph 9 mph 84% 0 in 441 W/m2
11:08 51.1 °F 46.4 °F 30.2 in WNW 4.9 mph 7 mph 84% 0 in 427 W/m2
11:13 51.4 °F 46.2 °F 30.2 in West 2.9 mph 9 mph 82% 0 in 461 W/m2
11:18 51.6 °F 46.2 °F 30.2 in WNW 4.9 mph 5 mph 82% 0 in 461 W/m2
11:23 51.6 °F 46 °F 30.2 in NW 6.9 mph 10 mph 81% 0 in 60 W/m2
11:28 51.3 °F 45 °F 30.2 in WNW 4 mph 5 mph 79% 0 in 60 W/m2
11:33 51.3 °F 45.7 °F 30.2 in WSW 4 mph 9 mph 81% 0 in 506 W/m2
11:38 52 °F 46 °F 30.2 in NW 4 mph 8 mph 80% 0 in 529 W/m2
11:43 52 °F 45.7 °F 30.2 in NW 4.9 mph 10 mph 79% 0 in 527 W/m2
11:48 52 °F 45.7 °F 30.2 in WSW 4.9 mph 9 mph 79% 0 in 573 W/m2
11:53 52.2 °F 45.9 °F 30.2 in NW 4 mph 10 mph 79% 0 in 492 W/m2
11:58 52.5 °F 45.1 °F 30.2 in West 2 mph 12 mph 76% 0 in 360 W/m2
12:03 52.3 °F 44.6 °F 30.2 in West 10.1 mph 11 mph 75% 0 in 69 W/m2
12:08 51.8 °F 45.1 °F 30.2 in WNW 2.9 mph 12 mph 78% 0 in 81 W/m2
12:13 51.6 °F 44.6 °F 30.2 in WSW 2.9 mph 8 mph 77% 0 in 155 W/m2
12:18 51.8 °F 45.5 °F 30.2 in NW 2.9 mph 5 mph 79% 0 in 104 W/m2
12:23 52.2 °F 45.5 °F 30.2 in WSW 4 mph 9 mph 78% 0 in 125 W/m2
12:28 52.5 °F 45.9 °F 30.2 in WNW 4 mph 11 mph 78% 0 in 171 W/m2
12:33 53.1 °F 45.7 °F 30.2 in WSW 6.9 mph 9 mph 76% 0 in 311 W/m2
12:38 53.4 °F 45.3 °F 30.2 in WNW 2.9 mph 11 mph 74% 0 in 668 W/m2
12:43 54 °F 46.2 °F 30.2 in WSW 4 mph 8 mph 75% 0 in 671 W/m2
12:48 54.1 °F 46 °F 30.2 in West 4 mph 10 mph 74% 0 in 664 W/m2
12:53 54.1 °F 45.7 °F 30.2 in West 4 mph 9 mph 73% 0 in 621 W/m2
12:58 54.1 °F 45.7 °F 30.2 in WNW 8.1 mph 9 mph 73% 0 in 596 W/m2
13:03 54 °F 45.9 °F 30.2 in West 6 mph 7 mph 74% 0 in 599 W/m2
13:08 54.3 °F 45.9 °F 30.2 in WNW 4 mph 11 mph 73% 0 in 671 W/m2
13:13 54.3 °F 45.5 °F 30.2 in West 6.9 mph 10 mph 72% 0 in 737 W/m2
13:18 54.7 °F 46.2 °F 30.2 in West 6 mph 6 mph 73% 0 in 715 W/m2
13:23 54.7 °F 44.2 °F 30.2 in WSW 4.9 mph 7 mph 68% 0 in 668 W/m2
13:29 54.9 °F 45 °F 30.2 in West 2.9 mph 11 mph 69% 0 in 628 W/m2
13:34 54.9 °F 45 °F 30.2 in NNW 4 mph 10 mph 69% 0 in 603 W/m2
13:39 54.7 °F 43.9 °F 30.2 in NW 8.1 mph 11 mph 67% 0 in 72 W/m2
13:44 54.1 °F 43 °F 30.2 in West 2.9 mph 10 mph 66% 0 in 599 W/m2
13:49 54.1 °F 42.6 °F 30.2 in WSW 6 mph 10 mph 65% 0 in 125 W/m2
13:54 54.1 °F 42.3 °F 30.2 in West 4 mph 10 mph 64% 0 in 91 W/m2
13:59 54.3 °F 42.4 °F 30.2 in WNW 6.9 mph 9 mph 64% 0 in 76 W/m2
14:04 54.1 °F 42.3 °F 30.2 in West 8.1 mph 10 mph 64% 0 in 63 W/m2
14:09 53.8 °F 42.3 °F 30.2 in WNW 4 mph 7 mph 65% 0 in 51 W/m2
14:14 53.8 °F 42.3 °F 30.2 in WNW 2.9 mph 11 mph 65% 0 in 58 W/m2
14:19 54.1 °F 43 °F 30.2 in NW 2 mph 9 mph 66% 0 in 83 W/m2
14:24 54.5 °F 43 °F 30.2 in NW 2.9 mph 11 mph 65% 0 in 90 W/m2
14:29 54.1 °F 42.6 °F 30.2 in WNW 2 mph 8 mph 65% 0 in 98 W/m2
14:34 54 °F 42.8 °F 30.2 in West 2.9 mph 10 mph 66% 0 in 151 W/m2
14:39 54.3 °F 43.2 °F 30.2 in West 8.1 mph 11 mph 66% 0 in 84 W/m2
14:44 54.3 °F 43.2 °F 30.2 in West 4 mph 10 mph 66% 0 in 97 W/m2
14:49 54.1 °F 43 °F 30.2 in West 4 mph 7 mph 66% 0 in 90 W/m2
14:54 54 °F 42.4 °F 30.2 in WNW 2 mph 11 mph 65% 0 in 130 W/m2
14:59 53.8 °F 41.9 °F 30.2 in WNW 6.9 mph 9 mph 64% 0 in 139 W/m2
15:04 54.1 °F 41.4 °F 30.2 in NW 4 mph 11 mph 62% 0 in 114 W/m2
15:09 54.9 °F 41.2 °F 30.2 in West 4 mph 12 mph 60% 0 in 399 W/m2
15:14 55 °F 41.9 °F 30.2 in WNW 4.9 mph 11 mph 61% 0 in 381 W/m2
15:19 55 °F 40.1 °F 30.2 in WSW 6.9 mph 14 mph 57% 0 in 520 W/m2
15:24 55 °F 41 °F 30.2 in WNW 2.9 mph 11 mph 59% 0 in 431 W/m2
15:29 55 °F 41.4 °F 30.2 in WNW 8.9 mph 14 mph 60% 0 in 406 W/m2
15:34 55 °F 40.5 °F 30.2 in WSW 4.9 mph 12 mph 58% 0 in 478 W/m2
15:39 55 °F 39.6 °F 30.2 in WSW 4 mph 10 mph 56% 0 in 406 W/m2
15:44 55.4 °F 40.8 °F 30.2 in NW 8.9 mph 10 mph 58% 0 in 163 W/m2
15:49 55 °F 41 °F 30.2 in WNW 4.9 mph 9 mph 59% 0 in 49 W/m2
15:54 54.3 °F 40.8 °F 30.2 in SW 4.9 mph 10 mph 60% 0 in 323 W/m2
15:59 54.1 °F 41.4 °F 30.2 in West 4 mph 7 mph 62% 0 in 424 W/m2
16:04 54.1 °F 41.4 °F 30.2 in SW 4.9 mph 7 mph 62% 0 in 418 W/m2
16:09 54.3 °F 39.9 °F 30.2 in WNW 4.9 mph 10 mph 58% 0 in 406 W/m2
16:14 54.9 °F 40.8 °F 30.2 in NNW 6 mph 11 mph 59% 0 in 432 W/m2
16:19 54.9 °F 40.8 °F 30.2 in WNW 4.9 mph 9 mph 59% 0 in 392 W/m2
16:24 54.9 °F 40.3 °F 30.2 in West 4 mph 10 mph 58% 0 in 355 W/m2
16:29 54.3 °F 39.9 °F 30.2 in WSW 8.9 mph 10 mph 58% 0 in 53 W/m2
16:34 54 °F 40.8 °F 30.2 in WSW 10.1 mph 10 mph 61% 0 in 42 W/m2
16:39 53.6 °F 41.7 °F 30.2 in WSW 4.9 mph 6 mph 64% 0 in 338 W/m2
16:44 53.4 °F 41.2 °F 30.2 in West 6.9 mph 14 mph 63% 0 in 320 W/m2
16:49 53.8 °F 41 °F 30.2 in West 6.9 mph 9 mph 62% 0 in 320 W/m2
16:54 53.6 °F 40.5 °F 30.2 in West 4 mph 14 mph 61% 0 in 42 W/m2
16:59 53.4 °F 40.6 °F 30.2 in WSW 2.9 mph 7 mph 62% 0 in 288 W/m2
17:04 53.2 °F 40.6 °F 30.2 in NW 4 mph 12 mph 62% 0 in 185 W/m2
17:09 53.2 °F 40.1 °F 30.2 in West 2 mph 9 mph 61% 0 in 51 W/m2
17:14 53.4 °F 40.6 °F 30.2 in WSW 2.9 mph 12 mph 62% 0 in 42 W/m2
17:19 53.4 °F 41.2 °F 30.2 in WNW 4.9 mph 7 mph 63% 0 in 54 W/m2
17:24 53.2 °F 41 °F 30.2 in WSW 2.9 mph 8 mph 63% 0 in 42 W/m2
17:29 53.1 °F 40.5 °F 30.2 in WNW 2 mph 9 mph 62% 0 in 32 W/m2
17:34 52.9 °F 39.7 °F 30.2 in West 2.9 mph 7 mph 61% 0 in 30 W/m2
17:39 52.5 °F 39.4 °F 30.2 in West 2.9 mph 5 mph 61% 0 in 28 W/m2
17:44 52.3 °F 39.7 °F 30.2 in West 4 mph 4 mph 62% 0 in 26 W/m2
17:49 52.2 °F 39.9 °F 30.2 in West 4 mph 7 mph 63% 0 in 25 W/m2
17:54 52.2 °F 40.3 °F 30.2 in WSW 0.9 mph 5 mph 64% 0 in 23 W/m2
17:59 52 °F 40.1 °F 30.2 in SW 2.9 mph 6 mph 64% 0 in 23 W/m2
18:04 52 °F 40.1 °F 30.2 in West 2 mph 6 mph 64% 0 in 21 W/m2
18:09 51.6 °F 40.6 °F 30.2 in WSW 4 mph 5 mph 66% 0 in 23 W/m2
18:14 51.4 °F 40.5 °F 30.2 in WSW 0.9 mph 5 mph 66% 0 in 23 W/m2
18:19 51.3 °F 40.6 °F 30.2 in WSW 2 mph 5 mph 67% 0 in 23 W/m2
18:24 51.1 °F 41.2 °F 30.2 in WSW 0.9 mph 3 mph 69% 0 in 21 W/m2
18:29 50.9 °F 40.3 °F 30.2 in WNW 2.9 mph 6 mph 67% 0 in 23 W/m2
18:34 50.7 °F 40.5 °F 30.2 in Calm   3 mph 68% 0 in 21 W/m2
18:39 50.5 °F 40.8 °F 30.2 in WSW 0.9 mph 4 mph 69% 0 in 16 W/m2
18:44 50.4 °F 41.7 °F 30.2 in Calm   1 mph 72% 0 in 11 W/m2
18:49 50.2 °F 42.3 °F 30.2 in Calm   1 mph 74% 0 in 7 W/m2
18:54 49.6 °F 42.1 °F 30.2 in Calm   1 mph 75% 0 in 0 W/m2
18:59 49.3 °F 42.1 °F 30.2 in Calm   2 mph 76% 0 in 0 W/m2
19:04 48.7 °F 42.3 °F 30.2 in WSW 0.9 mph 2 mph 78% 0 in 0 W/m2
19:09 48.4 °F 42.3 °F 30.2 in WSW 0.9 mph 2 mph 79% 0 in 0 W/m2
19:14 47.8 °F 41.7 °F 30.2 in WSW 0.9 mph 2 mph 79% 0 in 0 W/m2
19:19 47.7 °F 41.5 °F 30.2 in Calm   3 mph 79% 0 in 0 W/m2
19:24 47.8 °F 41.9 °F 30.2 in Calm   2 mph 80% 0 in 0 W/m2
19:29 47.8 °F 41.9 °F 30.2 in Calm   1 mph 80% 0 in 0 W/m2
19:35 47.7 °F 41.7 °F 30.2 in Calm   3 mph 80% 0 in 0 W/m2
19:40 47.7 °F 41.7 °F 30.2 in SW 0.9 mph 3 mph 80% 0 in 0 W/m2
19:45 47.5 °F 41.5 °F 30.2 in Calm   2 mph 80% 0 in 0 W/m2
19:50 47.5 °F 41.4 °F 30.2 in Calm   3 mph 79% 0 in 0 W/m2
19:55 47.5 °F 41.4 °F 30.2 in NW 4 mph 6 mph 79% 0 in 0 W/m2
20:00 47.7 °F 41.2 °F 30.2 in WSW 0.9 mph 3 mph 78% 0 in 0 W/m2
20:05 47.7 °F 40.8 °F 30.2 in WSW 0.9 mph 4 mph 77% 0 in 0 W/m2
20:10 47.8 °F 41 °F 30.2 in West 0.9 mph 3 mph 77% 0 in 0 W/m2
20:15 47.8 °F 40.6 °F 30.2 in WSW 0.9 mph 3 mph 76% 0 in 0 W/m2
20:20 48 °F 40.5 °F 30.2 in WSW 4.9 mph 5 mph 75% 0 in 0 W/m2
20:25 48.2 °F 41 °F 30.2 in West 2 mph 4 mph 76% 0 in 0 W/m2
20:30 48 °F 40.5 °F 30.2 in West 2.9 mph 8 mph 75% 0 in 0 W/m2
20:35 48.2 °F 40.6 °F 30.2 in West 0.9 mph 6 mph 75% 0 in 0 W/m2
20:40 48 °F 40.8 °F 30.2 in West 2 mph 8 mph 76% 0 in 0 W/m2
20:45 47.8 °F 40.6 °F 30.2 in West 2.9 mph 4 mph 76% 0 in 0 W/m2
20:50 47.8 °F 40.6 °F 30.2 in NW 2 mph 5 mph 76% 0 in 0 W/m2
20:55 47.8 °F 40.6 °F 30.2 in WNW 0.9 mph 2 mph 76% 0 in 0 W/m2
21:00 47.8 °F 40.6 °F 30.2 in SW 2 mph 5 mph 76% 0 in 0 W/m2
21:05 47.8 °F 40.6 °F 30.2 in West 0.9 mph 2 mph 76% 0 in 0 W/m2
21:10 47.7 °F 41.2 °F 30.2 in Calm   3 mph 78% 0 in 0 W/m2
21:15 47.5 °F 41 °F 30.2 in WNW 4 mph 5 mph 78% 0 in 0 W/m2
21:20 47.3 °F 41.2 °F 30.2 in Calm   2 mph 79% 0 in 0 W/m2
21:25 47.1 °F 40.6 °F 30.2 in Calm   1 mph 78% 0 in 0 W/m2
21:30 46.9 °F 41.2 °F 30.2 in Calm   2 mph 80% 0 in 0 W/m2
21:35 46.6 °F 41 °F 30.2 in West 0.9 mph 3 mph 81% 0 in 0 W/m2
21:41 46.2 °F 41 °F 30.2 in WSW 0.9 mph 3 mph 82% 0 in 0 W/m2
21:46 46.2 °F 41 °F 30.2 in Calm     82% 0 in 0 W/m2
21:51 45.9 °F 41 °F 30.2 in Calm   3 mph 83% 0 in 0 W/m2
21:56 45.7 °F 41.2 °F 30.2 in SW 0.9 mph 4 mph 84% 0 in 0 W/m2
22:01 45.5 °F 40.6 °F 30.2 in Calm   3 mph 83% 0 in 0 W/m2
22:06 45.7 °F 40.8 °F 30.2 in West 2.9 mph 6 mph 83% 0 in 0 W/m2
22:11 46 °F 40.8 °F 30.2 in Calm   3 mph 82% 0 in 0 W/m2
22:16 46.2 °F 40.6 °F 30.2 in WSW 0.9 mph 3 mph 81% 0 in 0 W/m2
22:21 46.2 °F 40.6 °F 30.2 in WSW 0.9 mph 2 mph 81% 0 in 0 W/m2
22:26 46.2 °F 40.6 °F 30.2 in WSW 2 mph 3 mph 81% 0 in 0 W/m2
22:31 46.2 °F 40.6 °F 30.2 in WNW 0.9 mph 4 mph 81% 0 in 0 W/m2
22:36 46.2 °F 40.6 °F 30.2 in NW 2 mph 9 mph 81% 0 in 0 W/m2
22:41 46.2 °F 40.6 °F 30.2 in WSW 2 mph 6 mph 81% 0 in 0 W/m2
22:46 46.4 °F 40.8 °F 30.2 in WSW 2.9 mph 9 mph 81% 0 in 0 W/m2
22:51 46.6 °F 41 °F 30.2 in WNW 4 mph 7 mph 81% 0 in 0 W/m2
22:56 46.6 °F 41 °F 30.2 in SW 4.9 mph 6 mph 81% 0 in 0 W/m2
23:01 46.4 °F 40.8 °F 30.2 in WSW 2 mph 5 mph 81% 0 in 0 W/m2
23:06 46.2 °F 40.6 °F 30.2 in SW 2 mph 8 mph 81% 0 in 0 W/m2
23:11 46.2 °F 40.6 °F 30.2 in West 2.9 mph 8 mph 81% 0 in 0 W/m2
23:16 46.2 °F 41 °F 30.2 in WNW 2.9 mph 6 mph 82% 0 in 0 W/m2
23:21 46.2 °F 41 °F 30.2 in SW 4 mph 8 mph 82% 0 in 0 W/m2
23:26 46.2 °F 41 °F 30.2 in West 2 mph 6 mph 82% 0 in 0 W/m2
23:31 46.4 °F 41.2 °F 30.2 in West 2 mph 9 mph 82% 0 in 0 W/m2
23:36 46.4 °F 41.2 °F 30.2 in West 2.9 mph 7 mph 82% 0 in 0 W/m2
23:41 46.2 °F 41 °F 30.2 in WSW 2 mph 6 mph 82% 0 in 0 W/m2
23:46 46.2 °F 41 °F 30.2 in West 8.1 mph 10 mph 82% 0 in 0 W/m2
23:51 46 °F 40.8 °F 30.2 in West 2.9 mph 6 mph 82% 0 in 0 W/m2
23:56 46 °F 41.2 °F 30.2 in WSW 2 mph 10 mph 83% 0 in 0 W/m2
Juneau County Weather
Compliments of Weather Underground - 4 mb